Time;durP1;ratioP1;P1;durP2;ratioP2;P2;SDS_P1;SDS_P2;PMS_P1;PMS_P2;Temp;Humidity;BMP_temperature;BMP_pressure;BME280_temperature;BME280_humidity;BME280_pressure;Samples;Min_cycle;Max_cycle;Signal;HPM_P1;HPM_P2
2023/08/16 00:00:54;;;;;;;;;;;;;;;21.47;30.35;97794.94;4969867;28;1062;-77
2023/08/16 00:03:19;;;;;;;;;;;;;;;21.73;29.61;97785.25;4959377;28;1268;-76
2023/08/16 00:05:45;;;;;;;;;;;;;;;21.73;29.75;97790.91;4978178;28;907;-76
2023/08/16 00:08:11;;;;;;;;;;;;;;;21.62;30.23;97807.44;4962188;28;1133;-77
2023/08/16 00:10:37;;;;;;;;;;;;;;;21.56;30.03;97801.53;4978101;28;963;-76
2023/08/16 00:13:02;;;;;;;;;;;;;;;21.66;30.12;97796.81;4962454;28;928;-76
2023/08/16 00:15:28;;;;;;;;;;;;;;;21.65;30.13;97789.53;4946219;28;1124;-76
2023/08/16 00:17:53;;;;;;;;;;;;;;;21.63;29.99;97789.19;4962053;28;1902;-77
2023/08/16 00:20:19;;;;;;;;;;;;;;;21.38;30.65;97781.44;4962937;28;929;-76
2023/08/16 00:22:45;;;;;;;;;;;;;;;21.70;30.23;97763.47;4963213;28;934;-76
2023/08/16 00:25:11;;;;;;;;;;;;;;;21.80;29.96;97745.38;4904696;29;1087;-76
2023/08/16 00:27:36;;;;;;;;;;;;;;;21.85;30.09;97724.97;4889036;29;1384;-77
2023/08/16 00:30:02;;;;;;;;;;;;;;;21.65;30.35;97713.06;4904862;29;957;-77
2023/08/16 00:32:28;;;;;;;;;;;;;;;21.68;30.33;97703.69;4904782;29;1153;-76
2023/08/16 00:34:53;;;;;;;;;;;;;;;21.81;30.34;97707.31;4920355;29;955;-77
2023/08/16 00:37:19;;;;;;;;;;;;;;;21.67;30.65;97709.81;4904463;29;1910;-75
2023/08/16 00:39:44;;;;;;;;;;;;;;;21.68;30.37;97726.34;4904297;29;1115;-77
2023/08/16 00:42:10;;;;;;;;;;;;;;;21.74;30.18;97741.53;4904721;29;1072;-77
2023/08/16 00:44:35;;;;;;;;;;;;;;;21.69;30.25;97750.56;4904348;29;998;-76
2023/08/16 00:47:01;;;;;;;;;;;;;;;21.46;30.89;97757.34;4904605;29;1117;-76
2023/08/16 00:49:28;;;;;;;;;;;;;;;21.67;30.54;97764.41;4904426;29;1066;-75
2023/08/16 00:51:54;;;;;;;;;;;;;;;21.78;30.57;97773.34;4904407;29;931;-76
2023/08/16 00:54:19;;;;;;;;;;;;;;;21.50;30.93;97780.69;4904096;29;1071;-77
2023/08/16 00:56:45;;;;;;;;;;;;;;;21.73;30.25;97802.25;4917721;29;1015;-77
2023/08/16 00:59:10;;;;;;;;;;;;;;;21.73;30.23;97824.91;4927226;29;1965;-76
2023/08/16 01:01:38;;;;;;;;;;;;;;;21.44;30.16;97841.91;4960503;29;940;-77
2023/08/16 01:04:03;;;;;;;;;;;;;;;21.51;30.03;97870.03;4927239;29;1630;-76
2023/08/16 01:06:29;;;;;;;;;;;;;;;21.70;29.79;97899.41;4942907;29;975;-76
2023/08/16 01:08:54;;;;;;;;;;;;;;;21.74;29.54;97888.78;4942790;29;963;-77
2023/08/16 01:11:33;;;;;;;;;;;;;;;21.94;29.04;97879.31;4927593;29;1261;-77
2023/08/16 01:14:01;;;;;;;;;;;;;;;21.65;29.60;97902.00;4942503;29;1039;-77
2023/08/16 01:16:27;;;;;;;;;;;;;;;21.49;29.50;97912.13;4922347;29;1319;-77
2023/08/16 01:18:53;;;;;;;;;;;;;;;21.43;29.27;97924.44;4922689;29;1968;-77
2023/08/16 01:21:18;;;;;;;;;;;;;;;21.64;29.23;97918.19;4922625;29;1309;-76
2023/08/16 01:24:02;;;;;;;;;;;;;;;21.74;28.81;97917.09;4906904;29;1122;-76
2023/08/16 01:26:28;;;;;;;;;;;;;;;21.65;28.75;97919.00;4900347;29;1241;-76
2023/08/16 01:28:53;;;;;;;;;;;;;;;21.83;28.65;97903.09;4900343;29;991;-76
2023/08/16 01:31:20;;;;;;;;;;;;;;;21.26;29.39;97893.34;4900213;29;1905;-76
2023/08/16 01:33:45;;;;;;;;;;;;;;;21.67;28.95;97911.66;4900279;29;1127;-76
2023/08/16 01:36:11;;;;;;;;;;;;;;;21.47;29.06;97936.47;4900274;29;1022;-76
2023/08/16 01:38:36;;;;;;;;;;;;;;;21.56;28.99;97939.47;4884885;29;1985;-77
2023/08/16 01:41:05;;;;;;;;;;;;;;;21.55;28.87;97937.84;4884625;29;1666;-76
2023/08/16 01:43:32;;;;;;;;;;;;;;;21.46;28.99;97929.22;4900295;29;940;-77
2023/08/16 01:45:58;;;;;;;;;;;;;;;21.67;28.72;97922.97;4844223;29;1159;-76
2023/08/16 01:48:24;;;;;;;;;;;;;;;21.57;28.80;97929.72;4862032;29;1387;-76
2023/08/16 01:50:49;;;;;;;;;;;;;;;21.61;28.94;97924.78;4881390;29;1280;-76
2023/08/16 01:53:15;;;;;;;;;;;;;;;21.47;28.72;97928.78;4881274;29;1062;-76
2023/08/16 01:55:40;;;;;;;;;;;;;;;21.76;28.37;97930.81;4881404;29;971;-76
2023/08/16 01:58:06;;;;;;;;;;;;;;;21.56;28.72;97916.81;4895309;29;1981;-76
2023/08/16 02:00:31;;;;;;;;;;;;;;;21.23;29.18;97933.81;4884652;29;1240;-77
2023/08/16 02:02:57;;;;;;;;;;;;;;;21.52;29.07;97933.09;4899599;29;976;-77
2023/08/16 02:05:23;;;;;;;;;;;;;;;21.74;28.89;97934.09;4884200;29;1128;-76
2023/08/16 02:07:49;;;;;;;;;;;;;;;21.60;29.13;97934.47;4884311;29;948;-76
2023/08/16 02:10:14;;;;;;;;;;;;;;;21.53;29.55;97937.53;4846822;29;1246;-76
2023/08/16 02:12:40;;;;;;;;;;;;;;;21.67;29.39;97934.31;4847149;29;1106;-77
2023/08/16 02:15:05;;;;;;;;;;;;;;;21.73;29.46;97938.16;4846722;29;1290;-76
2023/08/16 02:17:31;;;;;;;;;;;;;;;21.62;29.47;97948.22;4861967;29;1911;-76
2023/08/16 02:19:56;;;;;;;;;;;;;;;21.48;29.80;97943.72;4862179;29;1675;-76
2023/08/16 02:22:23;;;;;;;;;;;;;;;21.14;30.38;97927.19;4863636;29;1309;-76
2023/08/16 02:24:49;;;;;;;;;;;;;;;21.42;30.06;97920.81;4880953;29;1065;-77
2023/08/16 02:27:14;;;;;;;;;;;;;;;21.63;29.52;97916.63;4880238;29;1033;-76
2023/08/16 02:29:40;;;;;;;;;;;;;;;21.62;29.47;97909.38;4896241;29;1174;-76
2023/08/16 02:32:06;;;;;;;;;;;;;;;21.70;29.47;97907.91;4880301;29;1007;-75
2023/08/16 02:34:31;;;;;;;;;;;;;;;21.47;30.05;97902.50;4880414;29;1204;-76
2023/08/16 02:36:57;;;;;;;;;;;;;;;21.73;29.70;97909.06;4880307;29;979;-76
2023/08/16 02:39:22;;;;;;;;;;;;;;;21.70;29.71;97893.75;4880401;29;1904;-76
2023/08/16 02:41:48;;;;;;;;;;;;;;;21.51;29.80;97900.38;4908270;29;1434;-76
2023/08/16 02:44:13;;;;;;;;;;;;;;;21.51;30.22;97892.69;4917868;29;1002;-76
2023/08/16 02:46:39;;;;;;;;;;;;;;;21.47;30.32;97897.63;4905078;29;1264;-76
2023/08/16 02:49:04;;;;;;;;;;;;;;;21.49;30.14;97897.19;4880362;29;987;-77
2023/08/16 02:51:30;;;;;;;;;;;;;;;21.39;30.55;97895.44;4896041;29;957;-77
2023/08/16 02:53:55;;;;;;;;;;;;;;;21.67;30.11;97891.81;4907645;29;1120;-76
2023/08/16 02:56:21;;;;;;;;;;;;;;;21.94;29.53;97907.66;4901904;29;981;-77
2023/08/16 02:58:46;;;;;;;;;;;;;;;21.51;30.07;97903.22;4917844;29;1966;-76
2023/08/16 03:01:12;;;;;;;;;;;;;;;21.60;29.74;97903.34;4898750;29;938;-76
2023/08/16 03:03:37;;;;;;;;;;;;;;;21.84;29.66;97893.34;4898779;29;996;-76
2023/08/16 03:06:03;;;;;;;;;;;;;;;21.48;30.13;97893.56;4898593;29;982;-77
2023/08/16 03:08:29;;;;;;;;;;;;;;;21.59;30.04;97915.91;4914531;29;1331;-77
2023/08/16 03:10:55;;;;;;;;;;;;;;;21.51;30.03;97934.34;4898734;29;976;-76
2023/08/16 03:13:20;;;;;;;;;;;;;;;21.63;29.88;97947.75;4898570;29;1141;-76
2023/08/16 03:15:46;;;;;;;;;;;;;;;21.46;30.31;97946.22;4861329;29;973;-76
2023/08/16 03:18:11;;;;;;;;;;;;;;;21.65;29.96;97959.41;4888553;29;1972;-76
2023/08/16 03:20:37;;;;;;;;;;;;;;;21.46;30.48;97940.56;4879268;29;1213;-77
2023/08/16 03:23:03;;;;;;;;;;;;;;;21.60;30.43;97920.31;4880001;29;1110;-76
2023/08/16 03:25:29;;;;;;;;;;;;;;;21.68;30.65;97924.56;4864559;29;1359;-76
2023/08/16 03:27:54;;;;;;;;;;;;;;;21.81;30.44;97916.91;4879876;29;1045;-76
2023/08/16 03:30:20;;;;;;;;;;;;;;;21.69;30.59;97925.34;4879946;29;1388;-76
2023/08/16 03:32:47;;;;;;;;;;;;;;;21.51;30.72;97925.84;4879694;29;1170;-76
2023/08/16 03:35:12;;;;;;;;;;;;;;;21.69;30.67;97919.69;4879956;29;1170;-76
2023/08/16 03:37:38;;;;;;;;;;;;;;;21.37;31.18;97926.25;4879398;29;1911;-77
2023/08/16 03:40:05;;;;;;;;;;;;;;;21.79;30.43;97930.72;4902387;29;976;-77
2023/08/16 03:42:31;;;;;;;;;;;;;;;21.85;30.32;97940.25;4883346;29;1068;-76
2023/08/16 03:44:57;;;;;;;;;;;;;;;21.73;30.48;97932.50;4883457;29;1074;-77
2023/08/16 03:47:22;;;;;;;;;;;;;;;22.01;30.16;97938.59;4898879;29;1407;-76
2023/08/16 03:49:49;;;;;;;;;;;;;;;21.82;30.37;97929.81;4868008;29;1249;-76
2023/08/16 03:52:15;;;;;;;;;;;;;;;21.65;30.67;97927.47;4888631;29;939;-75
2023/08/16 03:54:40;;;;;;;;;;;;;;;21.74;30.74;97927.63;4921126;29;1118;-77
2023/08/16 03:57:06;;;;;;;;;;;;;;;21.42;31.32;97931.34;4905225;29;1122;-77
2023/08/16 03:59:32;;;;;;;;;;;;;;;21.59;30.95;97924.41;4905389;29;1910;-76
2023/08/16 04:01:58;;;;;;;;;;;;;;;21.56;31.14;97914.00;4921003;29;1265;-75
2023/08/16 04:04:23;;;;;;;;;;;;;;;21.44;31.14;97920.38;4905321;29;1258;-76
2023/08/16 04:06:49;;;;;;;;;;;;;;;21.68;30.70;97912.44;4936679;29;1378;-78
2023/08/16 04:09:14;;;;;;;;;;;;;;;21.66;30.92;97910.06;4920715;29;1042;-76
2023/08/16 04:11:40;;;;;;;;;;;;;;;21.66;30.98;97901.56;4920504;29;969;-76
2023/08/16 04:14:06;;;;;;;;;;;;;;;21.53;31.08;97900.72;4920442;29;1357;-77
2023/08/16 04:16:31;;;;;;;;;;;;;;;21.42;31.19;97915.16;4920549;29;982;-77
2023/08/16 04:18:58;;;;;;;;;;;;;;;21.67;30.75;97916.53;4924434;29;1903;-77
2023/08/16 04:21:23;;;;;;;;;;;;;;;21.68;30.57;97907.56;4958753;29;978;-76
2023/08/16 04:23:49;;;;;;;;;;;;;;;21.71;30.76;97892.53;4942762;29;1248;-77
2023/08/16 04:26:15;;;;;;;;;;;;;;;21.64;30.85;97901.22;4942574;29;1149;-77
2023/08/16 04:28:40;;;;;;;;;;;;;;;21.59;30.89;97893.25;4942539;29;1140;-76
2023/08/16 04:31:06;;;;;;;;;;;;;;;21.62;30.79;97897.25;4942680;29;1284;-76
2023/08/16 04:33:31;;;;;;;;;;;;;;;21.80;30.58;97914.50;4942379;29;1101;-76
2023/08/16 04:35:57;;;;;;;;;;;;;;;22.03;30.25;97928.41;4942586;29;966;-76
2023/08/16 04:38:22;;;;;;;;;;;;;;;21.70;30.37;97944.72;4942329;29;1887;-76
2023/08/16 04:40:49;;;;;;;;;;;;;;;21.65;30.47;97942.44;4926674;29;1322;-77
2023/08/16 04:43:15;;;;;;;;;;;;;;;21.75;30.18;97947.00;4928004;29;1144;-76
2023/08/16 04:45:41;;;;;;;;;;;;;;;21.31;30.89;97952.25;4931140;29;1292;-77
2023/08/16 04:48:07;;;;;;;;;;;;;;;21.66;30.51;97951.72;4923215;29;1192;-76
2023/08/16 04:50:33;;;;;;;;;;;;;;;21.84;30.12;97950.00;4881840;29;1243;-77
2023/08/16 04:52:58;;;;;;;;;;;;;;;21.66;30.44;97955.38;4898085;29;1298;-77
2023/08/16 04:55:26;;;;;;;;;;;;;;;21.64;30.33;97932.34;4863701;29;1107;-76
2023/08/16 04:57:52;;;;;;;;;;;;;;;21.58;30.87;97936.97;4832757;29;1977;-76
2023/08/16 05:00:19;;;;;;;;;;;;;;;21.74;30.44;97934.09;4848020;29;1415;-77
2023/08/16 05:02:57;;;;;;;;;;;;;;;21.70;30.82;97933.38;4863649;29;1232;-77
2023/08/16 05:05:24;;;;;;;;;;;;;;;21.84;30.27;97949.19;4848268;29;1239;-76
2023/08/16 05:07:49;;;;;;;;;;;;;;;21.67;30.96;97934.31;4863801;29;940;-76
2023/08/16 05:10:15;;;;;;;;;;;;;;;21.70;31.20;97943.94;4817443;29;1235;-76
2023/08/16 05:12:40;;;;;;;;;;;;;;;21.53;31.33;97940.34;4848240;29;976;-76
2023/08/16 05:15:06;;;;;;;;;;;;;;;21.73;30.83;97949.50;4832518;29;1037;-75
2023/08/16 05:17:32;;;;;;;;;;;;;;;21.90;30.39;97957.94;4829610;29;1970;-77
2023/08/16 05:19:57;;;;;;;;;;;;;;;21.78;30.64;97960.28;4829711;29;1516;-76
2023/08/16 05:22:24;;;;;;;;;;;;;;;21.97;30.43;97954.91;4860776;29;955;-76
2023/08/16 05:24:50;;;;;;;;;;;;;;;21.80;30.45;97966.28;4881520;29;1080;-76
2023/08/16 05:27:15;;;;;;;;;;;;;;;21.59;30.99;97978.19;4897766;29;1320;-76
2023/08/16 05:29:42;;;;;;;;;;;;;;;21.50;31.11;97973.19;4900719;29;1185;-76
2023/08/16 05:32:08;;;;;;;;;;;;;;;21.71;30.55;97971.81;4900714;29;1019;-76
2023/08/16 05:34:33;;;;;;;;;;;;;;;21.84;30.19;97961.31;4900616;29;977;-76
2023/08/16 05:36:59;;;;;;;;;;;;;;;21.79;30.21;97964.69;4900592;29;1191;-76
2023/08/16 05:39:24;;;;;;;;;;;;;;;21.71;30.50;97946.34;4900126;29;1907;-76
2023/08/16 05:41:50;;;;;;;;;;;;;;;21.68;30.54;97955.72;4881385;29;1211;-76
2023/08/16 05:44:15;;;;;;;;;;;;;;;22.00;30.41;97951.16;4881480;29;1168;-77
2023/08/16 05:46:41;;;;;;;;;;;;;;;21.78;30.86;97946.13;4881306;29;1589;-77
2023/08/16 05:49:06;;;;;;;;;;;;;;;21.65;31.21;97958.63;4881392;29;1229;-77
2023/08/16 05:51:32;;;;;;;;;;;;;;;21.55;31.30;97952.84;4881569;29;1121;-77
2023/08/16 05:53:58;;;;;;;;;;;;;;;21.95;31.00;97960.22;4869331;29;1099;-77
2023/08/16 05:56:24;;;;;;;;;;;;;;;21.99;30.65;97943.91;4917335;29;945;-76
2023/08/16 05:58:49;;;;;;;;;;;;;;;21.85;31.14;97931.75;4921512;29;1906;-77
2023/08/16 06:01:15;;;;;;;;;;;;;;;21.87;30.96;97917.16;4921209;29;1015;-77
2023/08/16 06:03:40;;;;;;;;;;;;;;;22.21;30.40;97905.22;4937736;29;934;-76
2023/08/16 06:06:06;;;;;;;;;;;;;;;21.84;31.13;97898.22;4937847;29;1022;-77
2023/08/16 06:08:32;;;;;;;;;;;;;;;22.05;30.66;97885.44;4906123;29;1567;-77
2023/08/16 06:10:57;;;;;;;;;;;;;;;21.91;30.89;97894.38;4890514;29;1111;-76
2023/08/16 06:13:22;;;;;;;;;;;;;;;21.98;31.00;97888.50;4921830;29;1012;-76
2023/08/16 06:15:48;;;;;;;;;;;;;;;21.47;31.88;97875.00;4921455;29;970;-76
2023/08/16 06:18:13;;;;;;;;;;;;;;;21.42;32.11;97854.94;4941024;28;1978;-76
2023/08/16 06:20:39;;;;;;;;;;;;;;;21.70;31.39;97858.97;4960992;28;976;-76
2023/08/16 06:23:04;;;;;;;;;;;;;;;22.01;30.82;97848.72;4978231;28;899;-76
2023/08/16 06:25:30;;;;;;;;;;;;;;;21.83;31.32;97829.44;4977775;28;992;-77
2023/08/16 06:27:55;;;;;;;;;;;;;;;21.81;31.21;97803.63;4978124;28;901;-77
2023/08/16 06:30:21;;;;;;;;;;;;;;;21.94;31.34;97811.31;4978187;28;937;-76
2023/08/16 06:32:46;;;;;;;;;;;;;;;21.95;31.22;97818.56;4977941;28;953;-76
2023/08/16 06:35:12;;;;;;;;;;;;;;;21.96;31.33;97825.81;4944939;28;875;-77
2023/08/16 06:37:39;;;;;;;;;;;;;;;22.06;31.27;97830.38;4937086;29;1978;-76
2023/08/16 06:40:05;;;;;;;;;;;;;;;22.04;31.35;97858.38;4905715;29;969;-76
2023/08/16 06:42:31;;;;;;;;;;;;;;;21.73;31.74;97875.88;4937193;29;1079;-76
2023/08/16 06:44:56;;;;;;;;;;;;;;;21.78;31.65;97883.81;4921491;29;1030;-76
2023/08/16 06:47:22;;;;;;;;;;;;;;;21.90;31.29;97889.94;4898872;29;1441;-77
2023/08/16 06:49:47;;;;;;;;;;;;;;;21.65;31.58;97897.13;4883575;29;975;-77
2023/08/16 06:52:13;;;;;;;;;;;;;;;21.84;31.00;97899.00;4898925;29;986;-76
2023/08/16 06:54:38;;;;;;;;;;;;;;;21.82;31.30;97918.50;4883198;29;971;-75
2023/08/16 06:57:05;;;;;;;;;;;;;;;21.91;31.13;97936.84;4883326;29;922;-78
2023/08/16 06:59:31;;;;;;;;;;;;;;;22.05;30.57;97947.78;4883077;29;2057;-77
2023/08/16 07:01:57;;;;;;;;;;;;;;;21.97;30.67;97957.75;4902219;29;1129;-76
2023/08/16 07:04:22;;;;;;;;;;;;;;;21.91;30.89;97963.16;4917905;29;987;-76
2023/08/16 07:06:48;;;;;;;;;;;;;;;21.95;30.70;97954.56;4902083;29;990;-76
2023/08/16 07:09:14;;;;;;;;;;;;;;;21.93;30.50;97969.19;4931872;29;1023;-77
2023/08/16 07:11:39;;;;;;;;;;;;;;;22.07;30.26;97967.94;4936272;29;975;-76
2023/08/16 07:14:05;;;;;;;;;;;;;;;22.08;30.17;97978.06;4936393;29;973;-76
2023/08/16 07:16:31;;;;;;;;;;;;;;;21.86;30.33;97969.34;4936938;29;985;-76
2023/08/16 07:18:56;;;;;;;;;;;;;;;22.06;29.96;97972.03;4979714;28;1906;-76
2023/08/16 07:21:22;;;;;;;;;;;;;;;21.84;30.52;97983.97;4978426;28;1223;-77
2023/08/16 07:23:47;;;;;;;;;;;;;;;21.90;30.27;97958.72;4994554;28;1000;-76
2023/08/16 07:26:13;;;;;;;;;;;;;;;21.90;30.33;97963.59;4955530;29;1242;-76
2023/08/16 07:28:38;;;;;;;;;;;;;;;21.79;30.59;97969.56;4955788;29;918;-77
2023/08/16 07:31:04;;;;;;;;;;;;;;;21.99;30.11;97989.25;4955794;29;1006;-77
2023/08/16 07:33:30;;;;;;;;;;;;;;;22.25;29.83;97987.31;4955915;29;999;-76
2023/08/16 07:35:59;;;;;;;;;;;;;;;22.25;29.67;97996.63;4955579;29;930;-76
2023/08/16 07:38:24;;;;;;;;;;;;;;;21.98;30.20;97993.34;4953250;29;2386;-76
2023/08/16 07:40:50;;;;;;;;;;;;;;;22.06;30.26;98001.16;4920909;29;984;-77
2023/08/16 07:43:15;;;;;;;;;;;;;;;22.04;30.58;97991.53;4936644;29;1077;-76
2023/08/16 07:45:41;;;;;;;;;;;;;;;21.91;30.76;97993.50;4936610;29;1102;-76
2023/08/16 07:48:06;;;;;;;;;;;;;;;21.84;30.59;97989.66;4936627;29;1201;-76
2023/08/16 07:50:32;;;;;;;;;;;;;;;21.83;30.54;97998.59;4936849;29;954;-76
2023/08/16 07:52:57;;;;;;;;;;;;;;;21.82;30.83;97997.81;4920461;29;1046;-76
2023/08/16 07:55:28;;;;;;;;;;;;;;;21.88;30.66;97991.59;4936099;29;1159;-76
2023/08/16 07:57:54;;;;;;;;;;;;;;;21.87;30.72;98004.16;4921333;29;1977;-76
2023/08/16 08:00:20;;;;;;;;;;;;;;;21.98;30.68;98011.13;4936610;29;960;-76
2023/08/16 08:02:45;;;;;;;;;;;;;;;21.96;30.81;98013.59;4926192;28;942;-76
2023/08/16 08:05:11;;;;;;;;;;;;;;;22.10;30.31;98015.25;4976728;28;948;-76
2023/08/16 08:07:36;;;;;;;;;;;;;;;21.97;30.49;98020.09;4959899;28;902;-76
2023/08/16 08:10:02;;;;;;;;;;;;;;;22.11;30.26;98019.69;4976783;28;1020;-77
2023/08/16 08:12:28;;;;;;;;;;;;;;;22.07;30.39;98021.78;4976799;28;970;-76
2023/08/16 08:14:57;;;;;;;;;;;;;;;22.07;30.11;98016.13;4960041;28;914;-76
2023/08/16 08:17:23;;;;;;;;;;;;;;;21.88;30.78;98028.41;4959462;28;945;-76
2023/08/16 08:19:48;;;;;;;;;;;;;;;22.05;30.28;98044.13;4959514;28;1910;-77
2023/08/16 08:22:14;;;;;;;;;;;;;;;22.18;30.20;98041.38;4943839;28;1528;-76
2023/08/16 08:24:39;;;;;;;;;;;;;;;22.23;30.38;98055.00;4978299;28;872;-76
2023/08/16 08:27:05;;;;;;;;;;;;;;;22.14;30.39;98044.31;4980475;28;972;-76
2023/08/16 08:29:30;;;;;;;;;;;;;;;22.05;30.77;98039.25;4963010;28;996;-76
2023/08/16 08:31:56;;;;;;;;;;;;;;;21.88;30.75;98040.53;4946195;28;1041;-76
2023/08/16 08:34:22;;;;;;;;;;;;;;;22.04;30.60;98031.19;4962981;28;889;-76
2023/08/16 08:36:47;;;;;;;;;;;;;;;22.17;30.48;98034.88;4914478;28;1153;-76
2023/08/16 08:39:15;;;;;;;;;;;;;;;22.36;30.18;98024.63;4963023;28;1986;-78
2023/08/16 08:41:41;;;;;;;;;;;;;;;22.12;30.42;98032.59;4963414;28;926;-76
2023/08/16 08:44:06;;;;;;;;;;;;;;;22.15;30.71;98014.72;4980076;28;1016;-76
2023/08/16 08:46:32;;;;;;;;;;;;;;;22.07;30.76;98030.28;4946535;28;1259;-76
2023/08/16 08:48:58;;;;;;;;;;;;;;;21.89;31.17;98024.34;4979960;28;925;-76
2023/08/16 08:51:24;;;;;;;;;;;;;;;22.08;31.13;98009.22;4946711;28;1199;-77
2023/08/16 08:53:51;;;;;;;;;;;;;;;22.14;30.97;98018.81;4979943;28;977;-76
2023/08/16 08:56:17;;;;;;;;;;;;;;;22.26;30.59;98015.19;4962440;28;981;-76
2023/08/16 08:58:43;;;;;;;;;;;;;;;22.22;30.92;98020.16;4946903;28;1903;-77
2023/08/16 09:01:09;;;;;;;;;;;;;;;21.98;31.03;98016.78;4938413;29;1577;-76
2023/08/16 09:03:34;;;;;;;;;;;;;;;22.12;31.09;98009.94;4922761;29;1517;-76
2023/08/16 09:06:01;;;;;;;;;;;;;;;21.84;31.47;98003.81;4922568;29;1496;-76
2023/08/16 09:08:27;;;;;;;;;;;;;;;21.74;31.67;98010.56;4922692;29;1494;-76
2023/08/16 09:10:52;;;;;;;;;;;;;;;21.85;31.65;98007.44;4906817;29;1492;-77
2023/08/16 09:13:18;;;;;;;;;;;;;;;21.96;31.36;98007.13;4938286;29;1664;-77
2023/08/16 09:15:44;;;;;;;;;;;;;;;22.03;31.35;97995.63;4922463;29;1522;-77
2023/08/16 09:18:13;;;;;;;;;;;;;;;21.91;31.69;97990.69;4883046;29;1899;-76
2023/08/16 09:20:38;;;;;;;;;;;;;;;22.16;31.10;98004.19;4922267;29;1605;-76
2023/08/16 09:23:04;;;;;;;;;;;;;;;22.01;31.38;98009.41;4922581;29;1576;-77
2023/08/16 09:25:29;;;;;;;;;;;;;;;22.05;31.44;98021.44;4922528;29;988;-77
2023/08/16 09:27:55;;;;;;;;;;;;;;;22.15;31.35;98008.25;4922550;29;1012;-76
2023/08/16 09:30:23;;;;;;;;;;;;;;;22.16;31.27;98009.84;4907132;29;1122;-76
2023/08/16 09:32:48;;;;;;;;;;;;;;;22.18;31.11;97996.81;4970371;28;950;-77
2023/08/16 09:35:14;;;;;;;;;;;;;;;22.23;31.03;97999.13;4961643;28;1072;-77
2023/08/16 09:37:41;;;;;;;;;;;;;;;22.24;30.80;98000.69;4961835;28;1975;-77
2023/08/16 09:40:10;;;;;;;;;;;;;;;22.07;30.93;98001.94;4959152;28;1215;-77
2023/08/16 09:42:36;;;;;;;;;;;;;;;22.08;31.23;98003.56;4923597;29;1526;-77
2023/08/16 09:45:02;;;;;;;;;;;;;;;22.20;30.88;98011.34;4942571;29;1532;-75
2023/08/16 09:47:31;;;;;;;;;;;;;;;22.24;31.00;98005.56;4940975;29;1240;-76
2023/08/16 09:49:59;;;;;;;;;;;;;;;22.10;31.30;98006.75;4957395;29;981;-76
2023/08/16 09:52:24;;;;;;;;;;;;;;;22.25;30.99;98010.78;4925305;29;1029;-76
2023/08/16 09:54:51;;;;;;;;;;;;;;;22.22;30.97;98003.16;4941255;29;918;-76
2023/08/16 09:57:16;;;;;;;;;;;;;;;22.16;31.05;97993.63;4941078;29;1138;-77
2023/08/16 09:59:42;;;;;;;;;;;;;;;22.07;31.16;98002.78;4923113;29;1923;-76
2023/08/16 10:02:08;;;;;;;;;;;;;;;22.25;31.04;98013.63;4940783;29;1561;-77
2023/08/16 10:04:33;;;;;;;;;;;;;;;22.23;31.18;98001.94;4916561;29;1611;-77
2023/08/16 10:06:59;;;;;;;;;;;;;;;22.48;30.76;98014.56;4945471;29;1668;-77
2023/08/16 10:09:24;;;;;;;;;;;;;;;22.42;30.67;98010.69;4930856;29;1343;-76
2023/08/16 10:11:50;;;;;;;;;;;;;;;22.28;31.00;98007.06;4938248;29;1585;-75
2023/08/16 10:14:15;;;;;;;;;;;;;;;22.34;30.74;98016.59;4932278;29;1608;-76
2023/08/16 10:16:42;;;;;;;;;;;;;;;22.23;31.12;98021.78;4929549;29;2209;-76
2023/08/16 10:19:09;;;;;;;;;;;;;;;22.32;30.83;98013.41;4950204;28;1903;-76
2023/08/16 10:21:37;;;;;;;;;;;;;;;22.18;31.04;98007.38;4944435;28;1328;-75
2023/08/16 10:24:02;;;;;;;;;;;;;;;22.03;31.51;98007.75;4960603;28;1532;-76
2023/08/16 10:26:31;;;;;;;;;;;;;;;21.88;31.64;98023.53;4977615;28;1535;-76
2023/08/16 10:28:59;;;;;;;;;;;;;;;22.15;31.41;98008.25;4961035;28;1475;-76
2023/08/16 10:31:25;;;;;;;;;;;;;;;22.19;31.24;98014.63;4960988;28;1450;-76
2023/08/16 10:33:52;;;;;;;;;;;;;;;22.27;31.07;98021.66;4960762;28;1477;-76
2023/08/16 10:36:17;;;;;;;;;;;;;;;22.24;30.98;98012.03;4949941;29;1570;-77
2023/08/16 10:38:43;;;;;;;;;;;;;;;22.72;30.72;98015.84;4937332;29;1910;-78
2023/08/16 10:41:12;;;;;;;;;;;;;;;22.52;30.68;98018.88;4937420;29;1085;-76
2023/08/16 10:43:38;;;;;;;;;;;;;;;22.53;31.33;98017.63;4936809;29;941;-76
2023/08/16 10:46:04;;;;;;;;;;;;;;;22.55;31.01;98020.03;4920930;29;1186;-77
2023/08/16 10:48:35;;;;;;;;;;;;;;;23.27;30.61;98018.63;4936158;29;1049;-75
2023/08/16 10:51:07;;;;;;;;;;;;;;;23.15;31.41;98017.34;4936998;29;1026;-76
2023/08/16 10:53:33;;;;;;;;;;;;;;;23.41;31.32;98032.31;4937186;29;1090;-76
2023/08/16 10:56:09;;;;;;;;;;;;;;;23.36;31.73;98030.88;4920741;29;1067;-77
2023/08/16 10:58:49;;;;;;;;;;;;;;;22.92;32.04;98020.56;4917095;29;1906;-77
2023/08/16 11:01:15;;;;;;;;;;;;;;;21.96;33.21;98022.09;4879955;29;1044;-75
2023/08/16 11:03:43;;;;;;;;;;;;;;;21.96;32.87;98024.13;4880066;29;1016;-76
2023/08/16 11:06:12;;;;;;;;;;;;;;;21.92;32.60;98029.91;4865712;29;931;-76
2023/08/16 11:08:44;;;;;;;;;;;;;;;21.56;32.92;98024.41;4867653;29;910;-75
2023/08/16 11:11:13;;;;;;;;;;;;;;;21.99;32.48;98028.91;4882887;29;947;-76
2023/08/16 11:13:41;;;;;;;;;;;;;;;21.93;32.53;98019.38;4898453;29;1004;-76
2023/08/16 11:16:10;;;;;;;;;;;;;;;22.23;31.88;98027.44;4882800;29;956;-77
2023/08/16 11:18:36;;;;;;;;;;;;;;;22.33;31.35;98026.34;4883369;29;1919;-76
2023/08/16 11:21:01;;;;;;;;;;;;;;;22.05;31.80;98027.91;4898633;29;1028;-75
2023/08/16 11:23:33;;;;;;;;;;;;;;;22.13;31.41;98024.94;4882953;29;1042;-77
2023/08/16 11:26:00;;;;;;;;;;;;;;;22.22;31.03;98031.50;4907435;29;1608;-76
2023/08/16 11:28:25;;;;;;;;;;;;;;;22.20;30.96;98034.00;4907736;29;1346;-75
2023/08/16 11:30:57;;;;;;;;;;;;;;;22.28;30.71;98029.75;4924108;29;1497;-75
2023/08/16 11:33:23;;;;;;;;;;;;;;;22.22;30.46;98025.84;4958918;28;1513;-76
2023/08/16 11:35:48;;;;;;;;;;;;;;;21.90;31.26;98025.91;4976566;28;1453;-76
2023/08/16 11:38:17;;;;;;;;;;;;;;;22.18;30.30;98008.16;4959316;28;1918;-76
2023/08/16 11:40:46;;;;;;;;;;;;;;;22.01;30.58;98004.53;4976622;28;1462;-75
2023/08/16 11:43:11;;;;;;;;;;;;;;;22.15;30.35;97997.72;4956021;29;1543;-76
2023/08/16 11:45:37;;;;;;;;;;;;;;;22.25;30.02;98005.13;4940637;29;1059;-76
2023/08/16 11:48:03;;;;;;;;;;;;;;;22.08;30.39;98003.56;4920159;29;978;-76
2023/08/16 11:50:28;;;;;;;;;;;;;;;21.98;30.41;98001.84;4920197;29;1120;-75
2023/08/16 11:53:01;;;;;;;;;;;;;;;22.23;29.96;97998.31;4920343;29;1039;-76
2023/08/16 11:55:29;;;;;;;;;;;;;;;22.09;30.15;97988.16;4904305;29;972;-76
2023/08/16 11:58:00;;;;;;;;;;;;;;;22.18;29.73;97985.50;4904533;29;1911;-77
2023/08/16 12:00:26;;;;;;;;;;;;;;;22.13;29.78;97993.75;4923106;29;1068;-76
2023/08/16 12:02:52;;;;;;;;;;;;;;;22.09;29.67;98002.31;4904601;29;1006;-75
2023/08/16 12:05:17;;;;;;;;;;;;;;;22.12;29.54;97992.13;4920752;29;952;-76
2023/08/16 12:07:52;;;;;;;;;;;;;;;21.96;29.83;97981.63;4920366;29;1127;-76
2023/08/16 12:10:23;;;;;;;;;;;;;;;22.04;29.79;97991.53;4920970;29;1061;-76
2023/08/16 12:12:52;;;;;;;;;;;;;;;22.22;29.52;97993.88;4920379;29;1011;-77
2023/08/16 12:15:27;;;;;;;;;;;;;;;22.00;29.85;97985.16;4920525;29;957;-77
2023/08/16 12:17:53;;;;;;;;;;;;;;;22.07;29.50;97990.63;4920841;29;1911;-76
2023/08/16 12:20:19;;;;;;;;;;;;;;;22.08;29.90;98003.56;4920277;29;934;-76
2023/08/16 12:22:44;;;;;;;;;;;;;;;22.09;29.82;97999.50;4904772;29;978;-76
2023/08/16 12:25:10;;;;;;;;;;;;;;;22.11;29.49;97980.00;4888950;29;1012;-77
2023/08/16 12:27:36;;;;;;;;;;;;;;;22.15;29.62;97994.09;4904701;29;1204;-77
2023/08/16 12:30:02;;;;;;;;;;;;;;;22.04;29.72;97992.31;4873500;29;953;-76
2023/08/16 12:32:27;;;;;;;;;;;;;;;22.04;29.77;97985.88;4920037;29;943;-76
2023/08/16 12:34:53;;;;;;;;;;;;;;;21.94;29.95;97999.09;4921706;29;1186;-76
2023/08/16 12:37:18;;;;;;;;;;;;;;;22.07;29.70;98001.94;4939141;29;1334;-76
2023/08/16 12:39:44;;;;;;;;;;;;;;;22.00;29.57;98007.84;4907479;29;1979;-75
2023/08/16 12:42:09;;;;;;;;;;;;;;;22.01;29.65;98003.75;4939280;29;999;-76
2023/08/16 12:44:35;;;;;;;;;;;;;;;22.07;29.23;98001.94;4907306;29;1374;-77
2023/08/16 12:47:00;;;;;;;;;;;;;;;21.97;29.62;98025.75;4939274;29;1052;-76
2023/08/16 12:49:26;;;;;;;;;;;;;;;22.15;29.37;98028.88;4939198;29;1023;-76
2023/08/16 12:51:51;;;;;;;;;;;;;;;22.10;29.43;98035.06;4922900;29;1080;-76
2023/08/16 12:54:17;;;;;;;;;;;;;;;21.78;29.71;98011.25;4922802;29;980;-76